createdAt,value
2023-05-06T00:00:19.564Z,0.00
2023-05-06T00:01:19.595Z,0.00
2023-05-06T00:02:19.625Z,0.00
2023-05-06T00:03:19.718Z,0.00
2023-05-06T00:04:19.730Z,0.00
2023-05-06T00:05:19.760Z,0.00
2023-05-06T00:06:19.730Z,0.00
2023-05-06T00:07:19.731Z,0.00
2023-05-06T00:08:19.761Z,0.00
2023-05-06T00:09:19.801Z,0.00
2023-05-06T00:10:19.803Z,0.00
2023-05-06T00:11:19.842Z,0.00
2023-05-06T00:12:19.849Z,0.00
2023-05-06T00:13:20.032Z,0.00
2023-05-06T00:14:19.896Z,0.00
2023-05-06T00:15:19.935Z,0.00
2023-05-06T00:16:20.005Z,0.00
2023-05-06T00:17:19.993Z,0.00
2023-05-06T00:18:19.990Z,0.00
2023-05-06T00:19:20.027Z,0.00
2023-05-06T00:20:20.049Z,0.00
2023-05-06T00:21:20.068Z,0.00
2023-05-06T00:22:20.089Z,0.00
2023-05-06T00:23:20.112Z,0.00
2023-05-06T00:24:20.137Z,0.00
2023-05-06T00:25:20.184Z,0.00
2023-05-06T00:26:20.189Z,0.00
2023-05-06T00:27:20.215Z,0.00
2023-05-06T00:28:20.234Z,0.00
2023-05-06T00:29:20.256Z,0.00
2023-05-06T00:30:20.283Z,0.00
2023-05-06T00:31:20.353Z,0.00
2023-05-06T00:32:20.331Z,0.00
2023-05-06T00:33:20.368Z,0.00
2023-05-06T00:34:20.387Z,0.00
2023-05-06T00:35:20.404Z,0.00
2023-05-06T00:36:20.425Z,0.00
2023-05-06T00:37:20.546Z,0.00
2023-05-06T00:38:20.475Z,0.00
2023-05-06T00:39:20.499Z,0.00
2023-05-06T00:40:20.525Z,0.00
2023-05-06T00:41:20.547Z,0.00
2023-05-06T00:42:20.583Z,0.00
2023-05-06T00:43:20.594Z,0.00
2023-05-06T00:44:20.617Z,0.00
2023-05-06T00:45:20.662Z,0.00
2023-05-06T00:46:20.735Z,0.00
2023-05-06T00:47:20.697Z,0.00
2023-05-06T00:48:20.716Z,0.00
2023-05-06T00:49:20.734Z,0.00
2023-05-06T00:50:20.760Z,0.00
2023-05-06T00:51:20.783Z,0.00
2023-05-06T00:52:20.809Z,0.00
2023-05-06T00:53:20.899Z,0.00
2023-05-06T00:54:20.864Z,0.00
2023-05-06T00:55:20.881Z,0.00
2023-05-06T00:56:20.989Z,0.00
2023-05-06T00:57:20.927Z,0.00
2023-05-06T00:58:20.963Z,0.00
2023-05-06T00:59:20.972Z,0.00
2023-05-06T01:00:21.012Z,0.00
2023-05-06T01:01:21.050Z,0.00
2023-05-06T01:02:21.112Z,0.00
2023-05-06T01:03:21.170Z,0.00
2023-05-06T01:04:21.096Z,0.00
2023-05-06T01:05:21.218Z,0.00
2023-05-06T01:06:21.149Z,0.00
2023-05-06T01:07:21.169Z,0.00
2023-05-06T01:08:21.193Z,0.00
2023-05-06T01:09:21.341Z,0.00
2023-05-06T01:10:21.255Z,0.00
2023-05-06T01:11:21.267Z,0.00
2023-05-06T01:12:21.288Z,0.00
2023-05-06T01:13:21.431Z,0.00
2023-05-06T01:14:21.351Z,0.00
2023-05-06T01:15:21.360Z,0.00
2023-05-06T01:16:21.427Z,0.00
2023-05-06T01:17:21.407Z,0.00
2023-05-06T01:18:21.437Z,0.00
2023-05-06T01:19:21.457Z,0.00
2023-05-06T01:20:21.480Z,0.00
2023-05-06T01:21:21.506Z,0.00
2023-05-06T01:22:21.538Z,0.00
2023-05-06T01:23:21.558Z,0.00
2023-05-06T01:24:21.578Z,0.00
2023-05-06T01:25:21.689Z,0.00
2023-05-06T01:26:21.640Z,0.00
2023-05-06T01:27:21.650Z,0.00
2023-05-06T01:28:21.673Z,0.00
2023-05-06T01:29:21.699Z,0.00
2023-05-06T01:30:21.735Z,0.00
2023-05-06T01:31:21.789Z,0.00
2023-05-06T01:32:21.935Z,0.00
2023-05-06T01:33:21.793Z,0.00
2023-05-06T01:34:21.822Z,0.00
2023-05-06T01:35:21.862Z,0.00
2023-05-06T01:36:21.879Z,0.00
2023-05-06T01:37:21.895Z,0.00
2023-05-06T01:38:21.927Z,0.00
2023-05-06T01:39:21.935Z,0.00
2023-05-06T01:40:21.975Z,0.00
2023-05-06T01:41:21.986Z,0.00
2023-05-06T01:42:22.011Z,0.00
2023-05-06T01:43:22.040Z,0.00
2023-05-06T01:44:22.072Z,0.00
2023-05-06T01:45:22.077Z,0.00
2023-05-06T01:46:22.137Z,0.00
2023-05-06T01:47:22.126Z,0.00
2023-05-06T01:48:22.156Z,0.00
2023-05-06T01:49:22.178Z,0.00
2023-05-06T01:50:22.195Z,0.00
2023-05-06T01:51:22.218Z,0.00
2023-05-06T01:52:22.298Z,0.00
2023-05-06T01:53:22.279Z,0.00
2023-05-06T01:54:22.290Z,0.00
2023-05-06T01:55:22.318Z,0.00
2023-05-06T01:56:22.343Z,0.00
2023-05-06T01:57:22.456Z,0.00
2023-05-06T01:58:22.387Z,0.00
2023-05-06T01:59:22.416Z,0.00
2023-05-06T02:00:22.437Z,0.00
2023-05-06T02:01:22.488Z,0.00
2023-05-06T02:02:22.487Z,0.00
2023-05-06T02:03:22.546Z,0.00
2023-05-06T02:04:22.537Z,0.00
2023-05-06T02:05:22.552Z,0.00
2023-05-06T02:06:22.577Z,0.00
2023-05-06T02:07:22.599Z,0.00
2023-05-06T02:08:22.624Z,0.00
2023-05-06T02:09:22.651Z,0.00
2023-05-06T02:10:22.670Z,0.00
2023-05-06T02:11:22.704Z,0.00
2023-05-06T02:12:22.722Z,0.00
2023-05-06T02:13:22.791Z,0.00
2023-05-06T02:14:22.790Z,0.00
2023-05-06T02:15:22.799Z,0.00
2023-05-06T02:16:22.862Z,0.00
2023-05-06T02:17:22.854Z,0.00
2023-05-06T02:18:22.888Z,0.00
2023-05-06T02:19:22.894Z,0.00
2023-05-06T02:20:22.907Z,0.00
2023-05-06T02:21:22.933Z,0.00
2023-05-06T02:22:22.954Z,0.00
2023-05-06T02:23:22.981Z,0.00
2023-05-06T02:24:23.002Z,0.00
2023-05-06T02:25:23.032Z,0.00
2023-05-06T02:26:23.054Z,0.00
2023-05-06T02:27:23.084Z,0.00
2023-05-06T02:28:23.100Z,0.00
2023-05-06T02:29:23.129Z,0.00
2023-05-06T02:30:23.184Z,0.00
2023-05-06T02:31:23.212Z,0.00
2023-05-06T02:32:23.225Z,0.00
2023-05-06T02:33:23.215Z,0.00
2023-05-06T02:34:23.240Z,0.00
2023-05-06T02:35:23.266Z,0.00
2023-05-06T02:36:23.296Z,0.00
2023-05-06T02:37:23.330Z,0.00
2023-05-06T02:38:23.331Z,0.00
2023-05-06T02:39:23.359Z,0.00
2023-05-06T02:40:23.385Z,0.00
2023-05-06T02:41:23.414Z,0.00
2023-05-06T02:42:23.493Z,0.00
2023-05-06T02:43:23.477Z,0.00
2023-05-06T02:44:23.476Z,0.00
2023-05-06T02:45:23.582Z,0.00
2023-05-06T02:46:23.537Z,0.00
2023-05-06T02:47:23.559Z,0.00
2023-05-06T02:48:23.574Z,0.00
2023-05-06T02:49:23.599Z,0.00
2023-05-06T02:50:23.620Z,0.00
2023-05-06T02:51:23.645Z,0.00
2023-05-06T02:52:23.673Z,0.00
2023-05-06T02:53:23.689Z,0.00
2023-05-06T02:54:23.713Z,0.00
2023-05-06T02:55:23.734Z,0.00
2023-05-06T02:56:23.756Z,0.00
2023-05-06T02:57:23.779Z,0.00
2023-05-06T02:58:23.823Z,0.00
2023-05-06T02:59:23.824Z,0.00
2023-05-06T03:00:23.856Z,0.00
2023-05-06T03:01:24.111Z,0.00
2023-05-06T03:02:23.920Z,0.00
2023-05-06T03:03:23.921Z,0.00
2023-05-06T03:04:23.975Z,0.00
2023-05-06T03:05:23.972Z,0.00
2023-05-06T03:06:23.990Z,0.00
2023-05-06T03:07:24.013Z,0.00
2023-05-06T03:08:24.042Z,0.00
2023-05-06T03:09:24.077Z,0.00
2023-05-06T03:10:24.103Z,0.00
2023-05-06T03:11:24.113Z,0.00
2023-05-06T03:12:24.172Z,0.00
2023-05-06T03:13:24.153Z,0.00
2023-05-06T03:14:24.176Z,0.00
2023-05-06T03:15:24.205Z,0.00
2023-05-06T03:16:24.262Z,0.00
2023-05-06T03:17:24.332Z,0.00
2023-05-06T03:18:24.280Z,4.00
2023-05-06T03:19:24.290Z,4.00
2023-05-06T03:20:24.315Z,4.00
2023-05-06T03:21:24.398Z,0.00
2023-05-06T03:22:24.370Z,4.00
2023-05-06T03:23:24.399Z,4.00
2023-05-06T03:24:24.423Z,4.00
2023-05-06T03:25:24.430Z,8.00
2023-05-06T03:26:24.459Z,8.00
2023-05-06T03:27:24.491Z,12.00
2023-05-06T03:28:24.505Z,12.00
2023-05-06T03:29:24.528Z,12.00
2023-05-06T03:30:24.551Z,16.00
2023-05-06T03:31:24.636Z,20.00
2023-05-06T03:32:24.649Z,20.00
2023-05-06T03:33:24.621Z,20.00
2023-05-06T03:34:24.673Z,24.00
2023-05-06T03:35:24.674Z,24.00
2023-05-06T03:36:24.687Z,28.00
2023-05-06T03:37:24.719Z,32.00
2023-05-06T03:38:24.738Z,40.00
2023-05-06T03:39:24.761Z,40.00
2023-05-06T03:40:24.783Z,48.00
2023-05-06T03:41:24.831Z,56.00
2023-05-06T03:42:24.831Z,64.00
2023-05-06T03:43:24.858Z,72.00
2023-05-06T03:44:24.880Z,80.00
2023-05-06T03:45:24.898Z,88.00
2023-05-06T03:46:25.007Z,100.00
2023-05-06T03:47:25.045Z,104.00
2023-05-06T03:48:24.971Z,112.00
2023-05-06T03:49:24.993Z,120.00
2023-05-06T03:50:25.017Z,124.00
2023-05-06T03:51:25.049Z,136.00
2023-05-06T03:52:25.063Z,144.00
2023-05-06T03:53:25.105Z,156.00
2023-05-06T03:54:25.116Z,172.00
2023-05-06T03:55:25.140Z,180.00
2023-05-06T03:56:25.176Z,188.00
2023-05-06T03:57:25.180Z,208.00
2023-05-06T03:58:25.202Z,228.00
2023-05-06T03:59:25.225Z,252.00
2023-05-06T04:00:25.249Z,260.00
2023-05-06T04:01:25.289Z,264.00
2023-05-06T04:02:25.449Z,284.00
2023-05-06T04:03:25.374Z,284.00
2023-05-06T04:04:25.356Z,288.00
2023-05-06T04:05:25.452Z,296.00
2023-05-06T04:06:25.386Z,312.00
2023-05-06T04:07:25.422Z,344.00
2023-05-06T04:08:25.443Z,364.00
2023-05-06T04:09:25.459Z,380.00
2023-05-06T04:10:25.490Z,408.00
2023-05-06T04:11:25.502Z,424.00
2023-05-06T04:12:25.534Z,440.00
2023-05-06T04:13:25.565Z,460.00
2023-05-06T04:14:25.582Z,492.00
2023-05-06T04:15:25.633Z,528.00
2023-05-06T04:16:25.641Z,564.00
2023-05-06T04:17:25.661Z,608.00
2023-05-06T04:18:25.670Z,668.00
2023-05-06T04:19:25.693Z,712.00
2023-05-06T04:20:25.742Z,748.00
2023-05-06T04:21:25.746Z,784.00
2023-05-06T04:22:25.806Z,852.00
2023-05-06T04:23:25.791Z,872.00
2023-05-06T04:24:25.818Z,848.00
2023-05-06T04:25:25.833Z,876.00
2023-05-06T04:26:25.854Z,940.00
2023-05-06T04:27:25.884Z,980.00
2023-05-06T04:28:25.908Z,1064.00
2023-05-06T04:29:25.929Z,1112.00
2023-05-06T04:30:25.952Z,1136.00
2023-05-06T04:31:26.006Z,1172.00
2023-05-06T04:32:26.003Z,1180.00
2023-05-06T04:33:26.024Z,1188.00
2023-05-06T04:34:26.046Z,1220.00
2023-05-06T04:35:26.101Z,1252.00
2023-05-06T04:36:26.096Z,1276.00
2023-05-06T04:37:26.251Z,1316.00
2023-05-06T04:38:26.145Z,1280.00
2023-05-06T04:39:26.185Z,1288.00
2023-05-06T04:40:26.212Z,1300.00
2023-05-06T04:41:26.210Z,1344.00
2023-05-06T04:42:26.236Z,1392.00
2023-05-06T04:43:26.260Z,1416.00
2023-05-06T04:44:26.288Z,1432.00
2023-05-06T04:45:26.349Z,1452.00
2023-05-06T04:46:26.330Z,1444.00
2023-05-06T04:47:26.417Z,1496.00
2023-05-06T04:48:26.390Z,1548.00
2023-05-06T04:49:26.401Z,1612.00
2023-05-06T04:50:26.422Z,1748.00
2023-05-06T04:51:26.450Z,1852.00
2023-05-06T04:52:26.473Z,1860.00
2023-05-06T04:53:26.583Z,1940.00
2023-05-06T04:54:26.517Z,1964.00
2023-05-06T04:55:26.540Z,1992.00
2023-05-06T04:56:26.565Z,2008.00
2023-05-06T04:57:26.591Z,2080.00
2023-05-06T04:58:26.636Z,2100.00
2023-05-06T04:59:26.658Z,2120.00
2023-05-06T05:00:26.656Z,2100.00
2023-05-06T05:01:26.701Z,2196.00
2023-05-06T05:02:26.835Z,2272.00
2023-05-06T05:03:26.787Z,2232.00
2023-05-06T05:04:26.763Z,2248.00
2023-05-06T05:05:26.775Z,2248.00
2023-05-06T05:06:26.799Z,2216.00
2023-05-06T05:07:26.823Z,2248.00
2023-05-06T05:08:26.848Z,2364.00
2023-05-06T05:09:26.945Z,2556.00
2023-05-06T05:10:26.893Z,2624.00
2023-05-06T05:11:26.916Z,2748.00
2023-05-06T05:12:26.937Z,2832.00
2023-05-06T05:13:26.972Z,2900.00
2023-05-06T05:14:26.991Z,3008.00
2023-05-06T05:15:27.011Z,3124.00
2023-05-06T05:16:27.067Z,3248.00
2023-05-06T05:17:27.094Z,3292.00
2023-05-06T05:18:27.104Z,3428.00
2023-05-06T05:19:27.109Z,3492.00
2023-05-06T05:20:27.132Z,3460.00
2023-05-06T05:21:27.155Z,3624.00
2023-05-06T05:22:27.179Z,3628.00
2023-05-06T05:23:27.204Z,3528.00
2023-05-06T05:24:27.249Z,3528.00
2023-05-06T05:25:27.263Z,3528.00
2023-05-06T05:26:27.272Z,3440.00
2023-05-06T05:27:27.299Z,3424.00
2023-05-06T05:28:27.320Z,3456.00
2023-05-06T05:29:27.343Z,3412.00
2023-05-06T05:30:27.369Z,3396.00
2023-05-06T05:31:27.498Z,3368.00
2023-05-06T05:32:27.475Z,3268.00
2023-05-06T05:33:27.520Z,3196.00
2023-05-06T05:34:27.460Z,3288.00
2023-05-06T05:35:27.497Z,3404.00
2023-05-06T05:36:27.512Z,3480.00
2023-05-06T05:37:27.545Z,3484.00
2023-05-06T05:38:27.558Z,3524.00
2023-05-06T05:39:27.583Z,3616.00
2023-05-06T05:40:27.609Z,3672.00
2023-05-06T05:41:27.718Z,3728.00
2023-05-06T05:42:27.660Z,3868.00
2023-05-06T05:43:27.707Z,4048.00
2023-05-06T05:44:27.700Z,4100.00
2023-05-06T05:45:27.729Z,4096.00
2023-05-06T05:46:27.818Z,4108.00
2023-05-06T05:47:27.799Z,4168.00
2023-05-06T05:48:27.794Z,4396.00
2023-05-06T05:49:27.820Z,4436.00
2023-05-06T05:50:27.853Z,4332.00
2023-05-06T05:51:27.877Z,4156.00
2023-05-06T05:52:27.899Z,4036.00
2023-05-06T05:53:27.915Z,4076.00
2023-05-06T05:54:27.944Z,4168.00
2023-05-06T05:55:27.965Z,4280.00
2023-05-06T05:56:27.987Z,4448.00
2023-05-06T05:57:28.089Z,4616.00
2023-05-06T05:58:28.038Z,4624.00
2023-05-06T05:59:28.060Z,4536.00
2023-05-06T06:00:28.084Z,4460.00
2023-05-06T06:01:28.107Z,4440.00
2023-05-06T06:02:28.223Z,4372.00
2023-05-06T06:03:28.220Z,4320.00
2023-05-06T06:04:28.216Z,4408.00
2023-05-06T06:05:28.205Z,4444.00
2023-05-06T06:06:28.228Z,4596.00
2023-05-06T06:07:28.253Z,4736.00
2023-05-06T06:08:28.282Z,4732.00
2023-05-06T06:09:28.311Z,4736.00
2023-05-06T06:10:28.326Z,4716.00
2023-05-06T06:11:28.359Z,4708.00
2023-05-06T06:12:28.374Z,4704.00
2023-05-06T06:13:29.132Z,4776.00
2023-05-06T06:14:28.418Z,4848.00
2023-05-06T06:15:28.440Z,4756.00
2023-05-06T06:16:28.500Z,4840.00
2023-05-06T06:17:28.518Z,5108.00
2023-05-06T06:18:28.523Z,5264.00
2023-05-06T06:19:28.539Z,5396.00
2023-05-06T06:20:28.596Z,5488.00
2023-05-06T06:21:28.607Z,5464.00
2023-05-06T06:22:28.620Z,5328.00
2023-05-06T06:23:28.644Z,5224.00
2023-05-06T06:24:28.663Z,5216.00
2023-05-06T06:25:28.690Z,5120.00
2023-05-06T06:26:28.718Z,5116.00
2023-05-06T06:27:28.738Z,5136.00
2023-05-06T06:28:28.764Z,5160.00
2023-05-06T06:29:28.856Z,5392.00
2023-05-06T06:30:28.849Z,5788.00
2023-05-06T06:31:28.887Z,5980.00
2023-05-06T06:32:28.922Z,6004.00
2023-05-06T06:33:28.899Z,6008.00
2023-05-06T06:34:28.909Z,6216.00
2023-05-06T06:35:28.937Z,6488.00
2023-05-06T06:36:28.956Z,6436.00
2023-05-06T06:37:28.986Z,6364.00
2023-05-06T06:38:29.011Z,6200.00
2023-05-06T06:39:29.031Z,5976.00
2023-05-06T06:40:29.057Z,6024.00
2023-05-06T06:41:29.079Z,6036.00
2023-05-06T06:42:29.111Z,6472.00
2023-05-06T06:43:29.152Z,6800.00
2023-05-06T06:44:29.154Z,6748.00
2023-05-06T06:45:29.327Z,6652.00
2023-05-06T06:46:29.205Z,6508.00
2023-05-06T06:47:29.246Z,6676.00
2023-05-06T06:48:29.270Z,6748.00
2023-05-06T06:49:29.281Z,7384.00
2023-05-06T06:50:29.299Z,7608.00
2023-05-06T06:51:29.329Z,7832.00
2023-05-06T06:52:29.361Z,7852.00
2023-05-06T06:53:29.399Z,8084.00
2023-05-06T06:54:29.410Z,8100.00
2023-05-06T06:55:29.423Z,7524.00
2023-05-06T06:56:29.449Z,7176.00
2023-05-06T06:57:29.478Z,7236.00
2023-05-06T06:58:29.497Z,7392.00
2023-05-06T06:59:29.521Z,7752.00
2023-05-06T07:00:29.551Z,7948.00
2023-05-06T07:01:29.654Z,8556.00
2023-05-06T07:02:29.626Z,8624.00
2023-05-06T07:03:29.632Z,8248.00
2023-05-06T07:04:29.671Z,7832.00
2023-05-06T07:05:29.671Z,7452.00
2023-05-06T07:06:29.708Z,7444.00
2023-05-06T07:07:29.717Z,7348.00
2023-05-06T07:08:29.741Z,7668.00
2023-05-06T07:09:29.765Z,7080.00
2023-05-06T07:10:29.794Z,6920.00
2023-05-06T07:11:29.816Z,7120.00
2023-05-06T07:12:29.840Z,6876.00
2023-05-06T07:13:29.866Z,7052.00
2023-05-06T07:14:29.893Z,7276.00
2023-05-06T07:15:29.914Z,7284.00
2023-05-06T07:16:30.003Z,7392.00
2023-05-06T07:17:30.040Z,7200.00
2023-05-06T07:18:29.987Z,6784.00
2023-05-06T07:19:30.023Z,6604.00
2023-05-06T07:20:30.041Z,6772.00
2023-05-06T07:21:30.069Z,7384.00
2023-05-06T07:22:30.088Z,7900.00
2023-05-06T07:23:31.940Z,7668.00
2023-05-06T07:24:30.150Z,7936.00
2023-05-06T07:25:30.164Z,7888.00
2023-05-06T07:26:30.201Z,7984.00
2023-05-06T07:27:30.215Z,8008.00
2023-05-06T07:28:30.245Z,7484.00
2023-05-06T07:29:30.268Z,7516.00
2023-05-06T07:30:30.291Z,8592.00
2023-05-06T07:31:30.375Z,8516.00
2023-05-06T07:32:30.361Z,8564.00
2023-05-06T07:33:30.549Z,8816.00
2023-05-06T07:34:30.402Z,8968.00
2023-05-06T07:35:30.413Z,10940.00
2023-05-06T07:36:30.441Z,10820.00
2023-05-06T07:37:30.468Z,10136.00
2023-05-06T07:38:30.494Z,9188.00
2023-05-06T07:39:30.520Z,9432.00
2023-05-06T07:40:30.545Z,9916.00
2023-05-06T07:41:30.588Z,10588.00
2023-05-06T07:42:30.597Z,10888.00
2023-05-06T07:43:30.621Z,10568.00
2023-05-06T07:44:30.645Z,9488.00
2023-05-06T07:45:30.674Z,9136.00
2023-05-06T07:46:30.810Z,9132.00
2023-05-06T07:47:30.781Z,9096.00
2023-05-06T07:48:30.775Z,8788.00
2023-05-06T07:49:30.864Z,8732.00
2023-05-06T07:50:30.803Z,8508.00
2023-05-06T07:51:30.830Z,8820.00
2023-05-06T07:52:30.855Z,8556.00
2023-05-06T07:53:30.874Z,9192.00
2023-05-06T07:54:30.908Z,9540.00
2023-05-06T07:55:31.999Z,10304.00
2023-05-06T07:56:30.959Z,11240.00
2023-05-06T07:57:30.996Z,11464.00
2023-05-06T07:58:31.021Z,11492.00
2023-05-06T07:59:31.056Z,10780.00
2023-05-06T08:00:31.077Z,10232.00
2023-05-06T08:01:31.094Z,10288.00
2023-05-06T08:02:31.175Z,9944.00
2023-05-06T08:03:31.271Z,9620.00
2023-05-06T08:04:31.205Z,9544.00
2023-05-06T08:05:31.268Z,9496.00
2023-05-06T08:06:31.221Z,9460.00
2023-05-06T08:07:31.262Z,9144.00
2023-05-06T08:08:31.275Z,9144.00
2023-05-06T08:09:31.299Z,9656.00
2023-05-06T08:10:31.332Z,10148.00
2023-05-06T08:11:31.372Z,10568.00
2023-05-06T08:12:31.376Z,10928.00
2023-05-06T08:13:31.412Z,11360.00
2023-05-06T08:14:31.464Z,11624.00
2023-05-06T08:15:31.464Z,11992.00
2023-05-06T08:16:31.523Z,12616.00
2023-05-06T08:17:31.622Z,12984.00
2023-05-06T08:18:31.556Z,13904.00
2023-05-06T08:19:31.565Z,13136.00
2023-05-06T08:20:31.594Z,12124.00
2023-05-06T08:21:31.827Z,11916.00
2023-05-06T08:22:31.657Z,11336.00
2023-05-06T08:23:31.692Z,10888.00
2023-05-06T08:24:31.700Z,10412.00
2023-05-06T08:25:31.728Z,10492.00
2023-05-06T08:26:31.767Z,10356.00
2023-05-06T08:27:31.789Z,10372.00
2023-05-06T08:28:31.810Z,10328.00
2023-05-06T08:29:31.843Z,10380.00
2023-05-06T08:30:31.864Z,11304.00
2023-05-06T08:31:31.928Z,12040.00
2023-05-06T08:32:31.944Z,12200.00
2023-05-06T08:33:31.949Z,11960.00
2023-05-06T08:34:31.992Z,11480.00
2023-05-06T08:35:31.998Z,11576.00
2023-05-06T08:36:32.030Z,11740.00
2023-05-06T08:37:32.124Z,11956.00
2023-05-06T08:38:32.086Z,13060.00
2023-05-06T08:39:32.110Z,16364.00
2023-05-06T08:40:32.134Z,20000.00
2023-05-06T08:41:32.163Z,17280.00
2023-05-06T08:42:32.181Z,13444.00
2023-05-06T08:43:32.244Z,12224.00
2023-05-06T08:44:32.237Z,12756.00
2023-05-06T08:45:32.291Z,12508.00
2023-05-06T08:46:32.297Z,12872.00
2023-05-06T08:47:32.343Z,13132.00
2023-05-06T08:48:32.348Z,12876.00
2023-05-06T08:49:32.387Z,12460.00
2023-05-06T08:50:32.410Z,11796.00
2023-05-06T08:51:32.445Z,11520.00
2023-05-06T08:52:32.475Z,12000.00
2023-05-06T08:53:32.681Z,12864.00
2023-05-06T08:54:32.515Z,13144.00
2023-05-06T08:55:32.544Z,12936.00
2023-05-06T08:56:32.572Z,12864.00
2023-05-06T08:57:32.604Z,13116.00
2023-05-06T08:58:32.624Z,13304.00
2023-05-06T08:59:32.659Z,13488.00
2023-05-06T09:00:32.686Z,13964.00
2023-05-06T09:01:32.778Z,14536.00
2023-05-06T09:02:32.815Z,15504.00
2023-05-06T09:03:32.858Z,17728.00
2023-05-06T09:04:32.863Z,19552.00
2023-05-06T09:05:32.820Z,18112.00
2023-05-06T09:06:32.854Z,15176.00
2023-05-06T09:07:32.895Z,13408.00
2023-05-06T09:08:32.906Z,14108.00
2023-05-06T09:09:33.013Z,15480.00
2023-05-06T09:10:32.964Z,15288.00
2023-05-06T09:11:33.014Z,14584.00
2023-05-06T09:12:33.029Z,15772.00
2023-05-06T09:13:33.043Z,15468.00
2023-05-06T09:14:33.072Z,14216.00
2023-05-06T09:15:33.108Z,15116.00
2023-05-06T09:16:33.165Z,16568.00
2023-05-06T09:17:33.202Z,17632.00
2023-05-06T09:18:33.191Z,17344.00
2023-05-06T09:19:33.226Z,18336.00
2023-05-06T09:20:33.250Z,18400.00
2023-05-06T09:21:33.290Z,15204.00
2023-05-06T09:22:33.307Z,13220.00
2023-05-06T09:23:33.335Z,12428.00
2023-05-06T09:24:33.366Z,11904.00
2023-05-06T09:25:33.468Z,12704.00
2023-05-06T09:26:33.452Z,14676.00
2023-05-06T09:27:33.453Z,15572.00
2023-05-06T09:28:33.482Z,14920.00
2023-05-06T09:29:33.509Z,14388.00
2023-05-06T09:30:33.549Z,15020.00
2023-05-06T09:31:33.640Z,15992.00
2023-05-06T09:32:33.638Z,15924.00
2023-05-06T09:33:33.629Z,16296.00
2023-05-06T09:34:33.668Z,15912.00
2023-05-06T09:35:33.692Z,14840.00
2023-05-06T09:36:33.720Z,13720.00
2023-05-06T09:37:33.744Z,11636.00
2023-05-06T09:38:33.780Z,10248.00
2023-05-06T09:39:33.807Z,10344.00
2023-05-06T09:40:33.830Z,9820.00
2023-05-06T09:41:34.097Z,8856.00
2023-05-06T09:42:33.889Z,7812.00
2023-05-06T09:43:33.936Z,8596.00
2023-05-06T09:44:33.956Z,9636.00
2023-05-06T09:45:34.046Z,10132.00
2023-05-06T09:46:34.042Z,9344.00
2023-05-06T09:47:34.097Z,8532.00
2023-05-06T09:48:34.073Z,8164.00
2023-05-06T09:49:34.093Z,7888.00
2023-05-06T09:50:34.124Z,7068.00
2023-05-06T09:51:34.151Z,6172.00
2023-05-06T09:52:34.184Z,5540.00
2023-05-06T09:53:34.214Z,5224.00
2023-05-06T09:54:34.254Z,5016.00
2023-05-06T09:55:34.264Z,5044.00
2023-05-06T09:56:34.301Z,5080.00
2023-05-06T09:57:34.423Z,5108.00
2023-05-06T09:58:34.358Z,5144.00
2023-05-06T09:59:34.380Z,5188.00
2023-05-06T10:00:34.410Z,5208.00
2023-05-06T10:01:37.169Z,5128.00
2023-05-06T10:02:34.582Z,5016.00
2023-05-06T10:03:34.617Z,4868.00
2023-05-06T10:04:34.684Z,4776.00
2023-05-06T10:05:34.559Z,5000.00
2023-05-06T10:06:34.586Z,5056.00
2023-05-06T10:07:34.604Z,5172.00
2023-05-06T10:08:34.629Z,5108.00
2023-05-06T10:09:34.661Z,4944.00
2023-05-06T10:10:34.692Z,4744.00
2023-05-06T10:11:34.730Z,4608.00
2023-05-06T10:12:34.818Z,4540.00
2023-05-06T10:13:34.958Z,4484.00
2023-05-06T10:14:34.800Z,4524.00
2023-05-06T10:15:34.841Z,4584.00
2023-05-06T10:16:35.033Z,4668.00
2023-05-06T10:17:34.997Z,4744.00
2023-05-06T10:18:34.910Z,4696.00
2023-05-06T10:19:34.959Z,4744.00
2023-05-06T10:20:34.965Z,4880.00
2023-05-06T10:21:34.990Z,5104.00
2023-05-06T10:22:35.023Z,5332.00
2023-05-06T10:23:35.047Z,5576.00
2023-05-06T10:24:35.072Z,5748.00
2023-05-06T10:25:35.100Z,5640.00
2023-05-06T10:26:35.141Z,5532.00
2023-05-06T10:27:35.169Z,5440.00
2023-05-06T10:28:35.182Z,5392.00
2023-05-06T10:29:35.214Z,5360.00
2023-05-06T10:30:35.236Z,5316.00
2023-05-06T10:31:35.306Z,5276.00
2023-05-06T10:32:35.301Z,5104.00
2023-05-06T10:33:35.320Z,5016.00
2023-05-06T10:34:35.340Z,4964.00
2023-05-06T10:35:35.377Z,4872.00
2023-05-06T10:36:35.403Z,4836.00
2023-05-06T10:37:35.426Z,4864.00
2023-05-06T10:38:35.452Z,4856.00
2023-05-06T10:39:35.486Z,4820.00
2023-05-06T10:40:35.507Z,4764.00
2023-05-06T10:41:35.541Z,4692.00
2023-05-06T10:42:35.576Z,4664.00
2023-05-06T10:43:35.592Z,4660.00
2023-05-06T10:44:35.611Z,4628.00
2023-05-06T10:45:35.681Z,4668.00
2023-05-06T10:46:35.675Z,4852.00
2023-05-06T10:47:35.703Z,4776.00
2023-05-06T10:48:35.718Z,5028.00
2023-05-06T10:49:35.752Z,4976.00
2023-05-06T10:50:35.778Z,4756.00
2023-05-06T10:51:35.808Z,4660.00
2023-05-06T10:52:35.834Z,4704.00
2023-05-06T10:53:35.856Z,4912.00
2023-05-06T10:54:35.887Z,4868.00
2023-05-06T10:55:35.933Z,4676.00
2023-05-06T10:56:35.971Z,4636.00
2023-05-06T10:57:35.969Z,4824.00
2023-05-06T10:58:36.025Z,5080.00
2023-05-06T10:59:36.027Z,4976.00
2023-05-06T11:00:36.050Z,4956.00
2023-05-06T11:01:36.248Z,5108.00
2023-05-06T11:02:36.206Z,5276.00
2023-05-06T11:03:36.190Z,5520.00
2023-05-06T11:04:36.164Z,5156.00
2023-05-06T11:05:36.196Z,4716.00
2023-05-06T11:06:36.217Z,4568.00
2023-05-06T11:07:36.242Z,4532.00
2023-05-06T11:08:36.276Z,4528.00
2023-05-06T11:09:36.297Z,4564.00
2023-05-06T11:10:36.328Z,4368.00
2023-05-06T11:11:36.364Z,4216.00
2023-05-06T11:12:36.401Z,4060.00
2023-05-06T11:13:36.414Z,3932.00
2023-05-06T11:14:36.443Z,3876.00
2023-05-06T11:15:36.465Z,3880.00
2023-05-06T11:16:38.643Z,3880.00
2023-05-06T11:17:36.567Z,3932.00
2023-05-06T11:18:36.546Z,3956.00
2023-05-06T11:19:36.577Z,3972.00
2023-05-06T11:20:36.601Z,3992.00
2023-05-06T11:21:36.633Z,4020.00
2023-05-06T11:22:36.661Z,4064.00
2023-05-06T11:23:36.688Z,4140.00
2023-05-06T11:24:36.715Z,4152.00
2023-05-06T11:25:36.782Z,4216.00
2023-05-06T11:26:36.768Z,4304.00
2023-05-06T11:27:36.801Z,4180.00
2023-05-06T11:28:36.824Z,4088.00
2023-05-06T11:29:36.858Z,4192.00
2023-05-06T11:30:36.882Z,4116.00
2023-05-06T11:31:36.971Z,4096.00
2023-05-06T11:32:36.959Z,4068.00
2023-05-06T11:33:36.956Z,4056.00
2023-05-06T11:34:36.989Z,4044.00
2023-05-06T11:35:37.015Z,4120.00
2023-05-06T11:36:37.048Z,4284.00
2023-05-06T11:37:37.084Z,4148.00
2023-05-06T11:38:37.139Z,3952.00
2023-05-06T11:39:40.393Z,3884.00
2023-05-06T11:40:37.178Z,3848.00
2023-05-06T11:41:37.214Z,3828.00
2023-05-06T11:42:37.232Z,3812.00
2023-05-06T11:43:37.240Z,3708.00
2023-05-06T11:44:37.286Z,3648.00
2023-05-06T11:45:37.301Z,3660.00
2023-05-06T11:46:37.412Z,3700.00
2023-05-06T11:47:37.393Z,3680.00
2023-05-06T11:48:37.380Z,3724.00
2023-05-06T11:49:37.483Z,3720.00
2023-05-06T11:50:37.433Z,3700.00
2023-05-06T11:51:37.474Z,3732.00
2023-05-06T11:52:37.503Z,3760.00
2023-05-06T11:53:37.519Z,3760.00
2023-05-06T11:54:37.559Z,3728.00
2023-05-06T11:55:37.574Z,3676.00
2023-05-06T11:56:37.616Z,3680.00
2023-05-06T11:57:37.628Z,3700.00
2023-05-06T11:58:37.658Z,3728.00
2023-05-06T11:59:37.688Z,3784.00
2023-05-06T12:00:37.713Z,3800.00
2023-05-06T12:01:37.752Z,3852.00
2023-05-06T12:02:37.794Z,3972.00
2023-05-06T12:03:38.050Z,3968.00
2023-05-06T12:04:37.890Z,4028.00
2023-05-06T12:05:37.923Z,4028.00
2023-05-06T12:06:37.886Z,3916.00
2023-05-06T12:07:37.914Z,3928.00
2023-05-06T12:08:37.946Z,3912.00
2023-05-06T12:09:37.982Z,3872.00
2023-05-06T12:10:37.994Z,3964.00
2023-05-06T12:11:38.022Z,3976.00
2023-05-06T12:12:38.085Z,3892.00
2023-05-06T12:13:38.082Z,3908.00
2023-05-06T12:14:38.108Z,3704.00
2023-05-06T12:15:38.138Z,3760.00
2023-05-06T12:16:38.251Z,3836.00
2023-05-06T12:17:38.215Z,4068.00
2023-05-06T12:18:38.219Z,4048.00
2023-05-06T12:19:38.258Z,4216.00
2023-05-06T12:20:38.276Z,4352.00
2023-05-06T12:21:38.397Z,4468.00
2023-05-06T12:22:38.331Z,4608.00
2023-05-06T12:23:38.374Z,4776.00